Time;durP1;ratioP1;P1;durP2;ratioP2;P2;SDS_P1;SDS_P2;PMS_P1;PMS_P2;Temp;Humidity;BMP_temperature;BMP_pressure;BME280_temperature;BME280_humidity;BME280_pressure;Samples;Min_cycle;Max_cycle;Signal;HPM_P1;HPM_P2
2021/06/17 00:00:42;;;;;;;10.98;5.03;;;;;;;15.03;75.02;95411.03;5090257;28;20042;-75
2021/06/17 00:03:18;;;;;;;8.23;5.53;;;;;;;14.92;75.65;95417.66;5094169;28;20071;-75
2021/06/17 00:05:45;;;;;;;8.88;5.55;;;;;;;14.81;76.08;95411.00;5094357;28;20042;-75
2021/06/17 00:08:11;;;;;;;7.68;5.28;;;;;;;14.73;76.09;95415.94;5089130;28;20040;-75
2021/06/17 00:10:41;;;;;;;6.18;5.40;;;;;;;14.75;75.94;95417.50;5089821;28;20051;-75
2021/06/17 00:13:11;;;;;;;11.55;5.55;;;;;;;14.75;75.70;95417.50;5090421;28;20043;-75
2021/06/17 00:15:38;;;;;;;8.50;5.25;;;;;;;14.73;75.72;95415.94;5090353;28;20036;-75
2021/06/17 00:18:05;;;;;;;8.10;5.40;;;;;;;14.69;75.96;95420.25;5093906;28;20436;-75
2021/06/17 00:20:31;;;;;;;8.82;5.28;;;;;;;14.59;75.87;95420.44;5088699;28;20044;-75
2021/06/17 00:22:57;;;;;;;6.93;5.50;;;;;;;14.57;76.33;95419.97;5089763;28;20071;-75
2021/06/17 00:25:23;;;;;;;12.38;5.78;;;;;;;14.54;76.24;95423.19;5088520;28;20101;-75
2021/06/17 00:27:48;;;;;;;7.32;5.40;;;;;;;14.51;76.36;95421.13;5101763;28;20453;-75
2021/06/17 00:30:15;;;;;;;8.25;5.70;;;;;;;14.47;76.62;95430.75;5101193;28;20035;-75
2021/06/17 00:32:41;;;;;;;8.57;5.72;;;;;;;14.41;76.53;95431.94;5110477;28;20424;-75
2021/06/17 00:35:08;;;;;;;8.68;5.63;;;;;;;14.44;76.96;95426.03;5077819;28;20063;-75
2021/06/17 00:37:34;;;;;;;8.73;5.38;;;;;;;14.36;77.00;95420.34;5091949;28;20043;-75
2021/06/17 00:39:59;;;;;;;8.45;5.65;;;;;;;14.34;77.22;95414.59;5092632;28;20044;-75
2021/06/17 00:42:26;;;;;;;8.43;5.50;;;;;;;14.32;77.13;95416.75;5088924;28;20051;-75
2021/06/17 00:44:52;;;;;;;8.38;5.20;;;;;;;14.26;77.46;95422.44;5088647;28;20043;-75
2021/06/17 00:47:18;;;;;;;11.10;5.47;;;;;;;14.22;77.76;95411.63;5089774;28;20037;-76
2021/06/17 00:49:43;;;;;;;6.13;5.47;;;;;;;14.23;77.58;95413.22;5084093;28;20047;-75
2021/06/17 00:52:09;;;;;;;6.25;5.15;;;;;;;14.26;77.06;95402.03;5108953;28;20062;-75
2021/06/17 00:54:35;;;;;;;9.98;5.65;;;;;;;14.29;77.07;95406.72;5101024;28;20502;-75
2021/06/17 00:57:02;;;;;;;10.57;5.15;;;;;;;14.33;76.71;95394.47;5088125;28;20461;-75
2021/06/17 00:59:28;;;;;;;8.77;5.40;;;;;;;14.29;77.22;95406.72;5094475;28;20385;-75
2021/06/17 01:01:54;;;;;;;7.60;5.68;;;;;;;14.25;77.35;95405.78;5089779;28;20128;-75
2021/06/17 01:04:19;;;;;;;7.95;5.70;;;;;;;14.19;77.72;95413.03;5088072;28;20032;-75
2021/06/17 01:06:46;;;;;;;8.00;6.10;;;;;;;14.10;78.88;95408.72;5081605;28;20414;-75
2021/06/17 01:09:43;;;;;;;8.45;5.75;;;;;;;14.09;78.55;95407.13;5069048;28;20489;-75
2021/06/17 01:12:35;;;;;;;9.13;5.32;;;;;;;14.10;78.12;95398.13;5104241;28;20411;-75
2021/06/17 01:15:07;;;;;;;6.72;5.28;;;;;;;14.12;77.90;95395.97;5089589;28;20036;-75
2021/06/17 01:17:39;;;;;;;8.82;5.40;;;;;;;14.15;77.68;95395.38;5077070;28;20037;-75
2021/06/17 01:20:20;;;;;;;8.73;5.78;;;;;;;13.99;78.70;95398.31;5075961;28;20040;-75
2021/06/17 01:22:52;;;;;;;7.28;5.80;;;;;;;13.97;78.89;95395.16;5090385;28;20497;-75
2021/06/17 01:25:26;;;;;;;9.10;5.55;;;;;;;13.91;79.36;95401.66;5086448;28;20044;-75
2021/06/17 01:28:10;;;;;;;7.35;5.85;;;;;;;13.86;79.32;95393.78;5101269;28;20381;-76
2021/06/17 01:30:44;;;;;;;8.30;5.68;;;;;;;13.82;79.22;95387.50;5102026;28;20093;-75
2021/06/17 01:33:11;;;;;;;8.03;5.67;;;;;;;13.88;79.81;95386.38;5088401;28;20571;-75
2021/06/17 01:35:43;;;;;;;9.30;5.47;;;;;;;13.85;79.85;95387.72;5085033;28;20490;-75
2021/06/17 01:38:08;;;;;;;7.68;5.03;;;;;;;13.91;79.17;95380.47;5086853;28;20043;-75
2021/06/17 01:40:35;;;;;;;7.68;5.82;;;;;;;13.84;79.83;95382.72;5077972;28;20165;-75
2021/06/17 01:43:02;;;;;;;10.70;5.90;;;;;;;13.73;80.09;95378.69;5092878;28;20047;-75
2021/06/17 01:45:28;;;;;;;7.55;5.65;;;;;;;13.72;80.21;95382.41;5092652;28;20044;-75
2021/06/17 01:47:54;;;;;;;8.82;5.40;;;;;;;13.75;79.62;95381.81;5090024;28;20508;-75
2021/06/17 01:50:25;;;;;;;9.13;5.68;;;;;;;13.73;79.82;95381.34;5103559;28;20055;-75
2021/06/17 01:52:53;;;;;;;7.93;5.53;;;;;;;13.74;79.60;95375.00;5072969;28;20178;-75
2021/06/17 01:55:19;;;;;;;8.23;5.30;;;;;;;13.66;80.75;95374.59;5097557;28;20031;-75
2021/06/17 01:57:46;;;;;;;9.23;5.72;;;;;;;13.64;80.82;95382.00;5093332;28;20094;-75
2021/06/17 02:00:13;;;;;;;8.32;5.90;;;;;;;13.60;80.75;95386.31;5094051;28;20044;-75
2021/06/17 02:02:40;;;;;;;8.50;5.90;;;;;;;13.58;80.31;95379.75;5092393;28;20051;-75
2021/06/17 02:05:07;;;;;;;7.20;5.68;;;;;;;13.54;80.32;95381.41;5087281;28;20060;-75
2021/06/17 02:07:33;;;;;;;10.00;5.70;;;;;;;13.55;80.11;95372.38;5084135;28;20044;-75
2021/06/17 02:10:00;;;;;;;6.85;5.22;;;;;;;13.59;79.45;95368.09;5091771;28;20393;-75
2021/06/17 02:12:25;;;;;;;8.70;5.60;;;;;;;13.48;80.51;95367.50;5110140;28;20067;-75
2021/06/17 02:14:52;;;;;;;7.70;5.60;;;;;;;13.47;80.87;95364.06;5112812;28;20480;-75
2021/06/17 02:17:21;;;;;;;9.95;5.63;;;;;;;13.44;81.40;95371.78;5086223;28;20032;-75
2021/06/17 02:19:49;;;;;;;7.50;5.50;;;;;;;13.43;80.52;95364.94;5077924;28;20443;-75
2021/06/17 02:22:16;;;;;;;7.22;5.65;;;;;;;13.44;80.70;95355.94;5090843;28;20059;-75
2021/06/17 02:24:47;;;;;;;7.07;5.30;;;;;;;13.41;80.80;95361.81;5092216;28;20051;-76
2021/06/17 02:27:17;;;;;;;8.30;5.78;;;;;;;13.34;81.11;95357.66;5096968;28;20044;-75
2021/06/17 02:29:48;;;;;;;9.32;5.45;;;;;;;13.34;81.17;95360.31;5092124;28;20051;-75
2021/06/17 02:32:18;;;;;;;7.53;5.30;;;;;;;13.32;80.56;95365.06;5092230;28;20047;-75
2021/06/17 02:34:47;;;;;;;8.75;5.43;;;;;;;13.29;80.71;95363.03;5084799;28;20041;-75
2021/06/17 02:37:15;;;;;;;7.00;5.50;;;;;;;13.25;81.00;95354.09;5071464;28;20044;-75
2021/06/17 02:39:41;;;;;;;9.68;6.03;;;;;;;13.23;80.59;95363.38;5086219;28;20040;-75
2021/06/17 02:42:10;;;;;;;9.20;5.70;;;;;;;13.16;81.04;95353.22;5103079;27;20512;-75
2021/06/17 02:44:36;;;;;;;6.82;5.55;;;;;;;13.16;80.83;95355.84;5095802;28;20045;-75
2021/06/17 02:47:02;;;;;;;7.85;6.00;;;;;;;13.14;80.38;95352.69;5111633;28;20086;-75
2021/06/17 02:49:27;;;;;;;8.23;5.60;;;;;;;13.15;80.48;95354.28;5093047;28;20438;-75
2021/06/17 02:51:53;;;;;;;6.22;5.10;;;;;;;13.15;80.18;95349.00;5094732;28;20035;-75
2021/06/17 02:54:19;;;;;;;6.97;5.68;;;;;;;13.14;80.38;95352.69;5110092;28;20067;-76
2021/06/17 02:56:59;;;;;;;8.07;5.63;;;;;;;13.15;80.13;95349.00;5082970;28;20553;-75
2021/06/17 02:59:35;;;;;;;8.27;5.40;;;;;;;13.12;80.34;95339.78;5083987;28;20712;-75
2021/06/17 03:02:15;;;;;;;9.32;5.47;;;;;;;13.04;80.62;95337.78;5091547;28;20040;-75
2021/06/17 03:04:48;;;;;;;8.43;5.80;;;;;;;12.98;80.56;95342.38;5091165;28;20036;-75
2021/06/17 03:07:24;;;;;;;7.57;5.20;;;;;;;12.93;81.38;95334.53;5078451;28;20052;-75
2021/06/17 03:09:56;;;;;;;6.82;5.28;;;;;;;13.00;80.59;95332.31;5084577;28;20500;-75
2021/06/17 03:12:25;;;;;;;6.55;5.53;;;;;;;12.98;80.96;95331.78;5091527;28;20040;-75
2021/06/17 03:14:53;;;;;;;7.50;5.55;;;;;;;13.03;80.97;95330.16;5083226;28;20520;-75
2021/06/17 03:17:20;;;;;;;6.72;5.13;;;;;;;13.08;80.76;95327.44;5090850;28;20040;-75
2021/06/17 03:19:49;;;;;;;7.38;5.55;;;;;;;13.13;80.69;95335.25;5080601;28;20047;-74
2021/06/17 03:22:16;;;;;;;7.10;5.18;;;;;;;13.14;80.95;95332.34;5077283;28;20040;-75
2021/06/17 03:24:45;;;;;;;6.70;5.25;;;;;;;13.14;81.17;95331.56;5089663;28;20047;-75
2021/06/17 03:27:11;;;;;;;7.13;5.35;;;;;;;13.14;81.16;95326.28;5090588;28;20048;-75
2021/06/17 03:29:40;;;;;;;7.75;5.68;;;;;;;13.14;80.74;95326.28;5099309;28;20031;-75
2021/06/17 03:32:08;;;;;;;7.10;5.45;;;;;;;13.14;81.15;95336.84;5092785;28;20044;-75
2021/06/17 03:34:37;;;;;;;6.68;5.07;;;;;;;13.09;80.95;95323.72;5092721;28;20067;-75
2021/06/17 03:37:03;;;;;;;6.47;5.40;;;;;;;13.16;80.48;95340.00;5103829;28;20515;-76
2021/06/17 03:39:30;;;;;;;8.73;6.00;;;;;;;13.12;81.36;95339.00;5080742;28;20041;-76
2021/06/17 03:41:56;;;;;;;10.73;5.85;;;;;;;13.12;81.27;95345.06;5076464;28;20040;-76
2021/06/17 03:44:23;;;;;;;6.75;5.25;;;;;;;13.14;80.79;95336.84;5091281;28;20044;-75
2021/06/17 03:46:49;;;;;;;6.18;5.07;;;;;;;13.21;80.47;95342.53;5099387;28;20513;-75
2021/06/17 03:49:15;;;;;;;9.25;6.00;;;;;;;13.17;80.75;95341.53;5089138;28;20040;-75
2021/06/17 03:51:41;;;;;;;6.13;5.30;;;;;;;13.18;81.14;95343.13;5089251;28;20143;-74
2021/06/17 03:54:08;;;;;;;8.35;5.80;;;;;;;13.09;82.06;95350.16;5092316;28;20618;-75
2021/06/17 03:56:34;;;;;;;6.50;5.70;;;;;;;13.12;81.15;95354.84;5088481;28;20089;-75
2021/06/17 03:59:01;;;;;;;8.45;5.70;;;;;;;13.17;81.37;95352.13;5089352;28;20048;-75
2021/06/17 04:01:28;;;;;;;10.13;5.72;;;;;;;13.18;81.37;95358.97;5091934;28;20040;-75
2021/06/17 04:03:54;;;;;;;6.80;5.18;;;;;;;13.28;81.27;95358.03;5087501;28;20123;-75
2021/06/17 04:06:24;;;;;;;7.57;5.63;;;;;;;13.31;81.58;95363.50;5070115;28;20567;-75
2021/06/17 04:08:52;;;;;;;7.55;5.60;;;;;;;13.36;81.02;95359.25;5080630;28;20045;-76
2021/06/17 04:11:22;;;;;;;9.10;5.53;;;;;;;13.36;81.24;95369.81;5069952;28;20694;-75
2021/06/17 04:13:50;;;;;;;9.20;5.15;;;;;;;13.47;80.42;95371.22;5069872;28;20046;-75
2021/06/17 04:16:19;;;;;;;8.90;6.03;;;;;;;13.63;80.10;95375.19;5070011;28;20040;-75
2021/06/17 04:18:46;;;;;;;7.13;5.57;;;;;;;13.69;79.89;95379.28;5081127;28;20457;-75
2021/06/17 04:21:14;;;;;;;9.90;6.22;;;;;;;13.75;79.55;95376.53;5089548;28;20619;-75
2021/06/17 04:23:42;;;;;;;11.57;5.60;;;;;;;13.79;78.80;95382.81;5090554;28;20048;-75
2021/06/17 04:26:08;;;;;;;6.45;5.13;;;;;;;13.85;79.54;95386.94;5081435;28;20553;-75
2021/06/17 04:28:34;;;;;;;8.52;5.40;;;;;;;13.90;79.24;95384.19;5088196;28;20066;-76
2021/06/17 04:31:02;;;;;;;7.38;5.60;;;;;;;13.91;79.29;95385.78;5089045;28;20498;-76
2021/06/17 04:33:28;;;;;;;6.85;5.55;;;;;;;13.90;79.52;95386.84;5091988;28;20032;-75
2021/06/17 04:35:59;;;;;;;8.63;5.25;;;;;;;13.96;79.76;95383.00;5101321;28;20123;-75
2021/06/17 04:38:26;;;;;;;8.15;5.45;;;;;;;14.03;79.91;95388.69;5102744;28;20097;-75
2021/06/17 04:40:53;;;;;;;7.65;5.85;;;;;;;14.06;80.14;95381.25;5093379;28;20071;-75
2021/06/17 04:43:23;;;;;;;8.93;5.53;;;;;;;14.14;80.14;95391.16;5090048;28;20100;-75
2021/06/17 04:45:51;;;;;;;8.32;5.57;;;;;;;14.19;80.43;95391.06;5104602;28;20093;-75
2021/06/17 04:48:17;;;;;;;10.93;5.80;;;;;;;14.28;80.32;95391.94;5089399;28;20494;-75
2021/06/17 04:50:44;;;;;;;8.27;5.43;;;;;;;14.38;79.75;95397.03;5088650;28;20044;-75
2021/06/17 04:53:16;;;;;;;8.35;5.97;;;;;;;14.46;80.22;95389.47;5089523;28;20044;-75
2021/06/17 04:55:48;;;;;;;8.98;5.45;;;;;;;14.68;78.16;95392.22;5082604;28;20041;-75
2021/06/17 04:58:15;;;;;;;7.80;5.05;;;;;;;14.94;76.84;95394.31;5088235;28;20044;-75
2021/06/17 05:00:40;;;;;;;10.77;5.20;;;;;;;15.20;75.90;95397.16;5089483;28;20138;-75
2021/06/17 05:03:06;;;;;;;6.35;4.65;;;;;;;15.51;74.34;95400.91;5088150;28;20040;-75
2021/06/17 05:05:32;;;;;;;7.53;5.13;;;;;;;15.67;75.08;95399.44;5105970;28;20035;-75
2021/06/17 05:10:48;;;;;;;6.68;5.22;;;;;;;15.71;77.31;95405.72;5085344;28;20414;-75
2021/06/17 05:13:22;;;;;;;8.82;5.10;;;;;;;15.86;75.85;95406.44;5093622;28;20050;-75
2021/06/17 05:15:48;;;;;;;6.80;4.97;;;;;;;16.00;74.96;95401.81;5088617;28;20032;-75
2021/06/17 05:18:15;;;;;;;6.50;5.10;;;;;;;16.16;74.56;95404.06;5088448;28;20032;-76
2021/06/17 05:20:41;;;;;;;6.13;5.20;;;;;;;16.25;75.95;95402.22;5092842;28;20040;-75
2021/06/17 05:23:07;;;;;;;9.65;5.03;;;;;;;16.33;74.47;95404.09;5092001;28;20115;-75
2021/06/17 05:25:32;;;;;;;7.45;4.55;;;;;;;16.69;72.43;95400.44;5094328;28;20497;-75
2021/06/17 05:27:58;;;;;;;8.23;4.60;;;;;;;16.72;72.37;95404.34;5090012;28;20059;-75
2021/06/17 05:30:24;;;;;;;7.82;4.80;;;;;;;16.89;70.64;95403.59;5104794;28;20417;-75
2021/06/17 05:32:50;;;;;;;7.75;4.30;;;;;;;17.00;71.12;95412.84;5093013;28;20044;-75
2021/06/17 05:35:15;;;;;;;7.65;5.07;;;;;;;16.80;74.76;95409.66;5087413;28;20755;-75
2021/06/17 05:37:41;;;;;;;6.72;4.60;;;;;;;16.89;72.00;95408.94;5092833;28;20036;-75
2021/06/17 05:40:07;;;;;;;7.82;4.90;;;;;;;16.92;71.82;95413.63;5091560;28;20036;-75
2021/06/17 05:42:33;;;;;;;5.78;4.47;;;;;;;17.01;70.93;95410.97;5093089;28;20069;-75
2021/06/17 05:44:58;;;;;;;6.50;4.57;;;;;;;17.14;70.92;95410.81;5092854;28;20440;-75
2021/06/17 05:47:24;;;;;;;7.68;4.45;;;;;;;17.55;68.90;95413.28;5092510;28;20032;-75
2021/06/17 05:49:49;;;;;;;7.00;4.55;;;;;;;17.57;69.76;95414.53;5091443;28;20479;-75
2021/06/17 05:52:15;;;;;;;6.63;4.40;;;;;;;17.56;69.96;95414.84;5092734;28;20459;-75
2021/06/17 05:54:41;;;;;;;5.15;4.50;;;;;;;17.58;69.68;95407.31;5093032;28;20421;-75
2021/06/17 05:57:06;;;;;;;5.90;4.25;;;;;;;17.95;68.80;95410.38;5097575;28;20114;-76
2021/06/17 05:59:32;;;;;;;11.77;4.47;;;;;;;18.16;68.05;95405.91;5093906;28;20139;-75
2021/06/17 06:01:58;;;;;;;6.50;4.60;;;;;;;18.13;67.48;95406.56;5092408;28;20040;-75
2021/06/17 06:04:24;;;;;;;8.20;4.82;;;;;;;18.12;67.65;95410.31;5096412;28;20032;-75
2021/06/17 06:06:49;;;;;;;9.05;4.40;;;;;;;18.28;67.02;95413.22;5092039;28;20075;-75
2021/06/17 06:09:15;;;;;;;7.38;4.57;;;;;;;18.34;66.62;95414.59;5087754;28;20161;-75
2021/06/17 06:11:40;;;;;;;6.75;4.53;;;;;;;18.30;67.88;95411.03;5083963;28;20459;-75
2021/06/17 06:14:06;;;;;;;5.78;4.20;;;;;;;18.35;68.07;95418.03;5092971;28;20508;-75
2021/06/17 06:16:33;;;;;;;11.07;4.40;;;;;;;18.37;66.85;95410.50;5107445;28;20043;-75
2021/06/17 06:18:59;;;;;;;6.45;4.43;;;;;;;18.57;66.05;95410.88;5091539;28;20459;-75
2021/06/17 06:21:24;;;;;;;8.45;4.70;;;;;;;18.61;66.56;95406.47;5103915;28;20048;-75
2021/06/17 06:23:50;;;;;;;7.50;4.55;;;;;;;18.85;65.61;95403.19;5091769;28;20055;-75
2021/06/17 06:26:15;;;;;;;6.82;4.43;;;;;;;19.30;63.85;95409.75;5081014;28;20046;-75
2021/06/17 06:28:41;;;;;;;6.25;4.10;;;;;;;19.44;64.06;95406.78;5095591;28;20036;-75
2021/06/17 06:31:06;;;;;;;7.72;4.88;;;;;;;19.62;63.44;95413.50;5093172;28;20101;-75
2021/06/17 06:33:32;;;;;;;6.25;4.45;;;;;;;19.85;62.60;95411.25;5092313;28;20044;-75
2021/06/17 06:35:57;;;;;;;5.55;4.07;;;;;;;20.09;61.53;95417.75;5072796;28;20041;-74
2021/06/17 06:38:23;;;;;;;9.48;4.22;;;;;;;20.28;60.94;95416.44;5092298;28;20047;-75
2021/06/17 06:40:48;;;;;;;10.73;4.00;;;;;;;20.40;59.95;95425.25;5092021;28;20217;-75
2021/06/17 06:43:16;;;;;;;7.35;4.50;;;;;;;20.55;59.63;95426.44;5092142;28;20044;-75
2021/06/17 06:45:42;;;;;;;8.52;4.22;;;;;;;20.46;61.30;95422.31;5091332;28;20111;-75
2021/06/17 06:48:08;;;;;;;6.90;4.18;;;;;;;20.38;61.42;95416.00;5088576;28;20119;-75
2021/06/17 06:50:34;;;;;;;5.53;4.40;;;;;;;20.46;59.25;95412.44;5091794;28;20485;-75
2021/06/17 06:52:59;;;;;;;5.70;4.10;;;;;;;20.68;59.11;95423.81;5090174;28;20043;-75
2021/06/17 06:55:25;;;;;;;7.25;4.20;;;;;;;20.87;58.09;95421.28;5076798;28;20107;-75
2021/06/17 06:57:51;;;;;;;8.13;4.60;;;;;;;21.01;58.52;95420.19;5081259;28;20036;-75
2021/06/17 07:00:17;;;;;;;6.95;4.10;;;;;;;21.16;57.15;95432.84;5091266;28;20032;-75
2021/06/17 07:02:44;;;;;;;6.03;4.10;;;;;;;21.18;56.92;95425.25;5084940;28;20048;-75
2021/06/17 07:05:10;;;;;;;6.45;4.13;;;;;;;21.25;58.19;95430.81;5096326;28;20282;-75
2021/06/17 07:07:36;;;;;;;7.78;4.25;;;;;;;21.40;56.32;95436.53;5098091;28;20044;-74
2021/06/17 07:10:03;;;;;;;7.20;4.25;;;;;;;21.42;56.56;95432.41;5097641;28;20562;-75
2021/06/17 07:12:29;;;;;;;6.68;4.40;;;;;;;21.23;57.39;95433.06;5092566;28;20043;-75
2021/06/17 07:14:54;;;;;;;8.70;4.60;;;;;;;21.54;55.61;95420.91;5080870;28;20040;-77
2021/06/17 07:17:20;;;;;;;5.38;4.53;;;;;;;21.63;55.83;95434.91;5071430;28;20036;-77
2021/06/17 07:19:46;;;;;;;9.95;4.75;;;;;;;21.72;55.25;95431.28;5080499;28;20493;-77
2021/06/17 07:22:11;;;;;;;6.13;4.40;;;;;;;21.79;55.50;95431.47;5090038;28;20324;-77
2021/06/17 07:24:37;;;;;;;6.13;4.30;;;;;;;21.85;56.20;95430.13;5093516;28;20067;-77
2021/06/17 07:27:04;;;;;;;8.60;4.80;;;;;;;22.06;54.87;95434.47;5089542;28;20036;-77
2021/06/17 07:29:30;;;;;;;6.07;4.22;;;;;;;21.98;56.18;95438.88;5091272;28;20044;-77
2021/06/17 07:31:55;;;;;;;9.98;4.70;;;;;;;22.12;54.39;95433.06;5091122;28;20042;-77
2021/06/17 07:34:22;;;;;;;5.03;4.40;;;;;;;22.18;54.96;95442.41;5092562;28;20039;-76
2021/06/17 07:36:48;;;;;;;6.55;4.45;;;;;;;22.21;53.15;95431.00;5089952;28;20048;-76
2021/06/17 07:39:15;;;;;;;5.75;4.03;;;;;;;22.53;51.82;95444.41;5086666;28;20032;-76
2021/06/17 07:41:41;;;;;;;7.07;4.15;;;;;;;22.75;50.77;95443.00;5108030;28;20032;-79
2021/06/17 07:44:07;;;;;;;6.20;4.32;;;;;;;22.87;51.65;95442.13;5097404;28;20055;-76
2021/06/17 07:46:34;;;;;;;8.98;4.20;;;;;;;22.73;52.86;95442.56;5092580;28;20036;-78
2021/06/17 07:49:00;;;;;;;7.13;4.65;;;;;;;22.53;53.85;95447.09;5079102;28;20559;-77
2021/06/17 07:51:27;;;;;;;6.18;4.30;;;;;;;22.53;52.49;95440.94;5073231;28;20096;-78
2021/06/17 07:53:52;;;;;;;8.43;4.43;;;;;;;22.88;51.86;95449.00;5089326;28;20040;-77
2021/06/17 07:56:18;;;;;;;9.15;4.80;;;;;;;22.93;51.70;95448.75;5091466;28;20063;-77
2021/06/17 07:58:46;;;;;;;8.15;4.85;;;;;;;22.79;52.82;95443.09;5082804;28;20036;-78
2021/06/17 08:01:12;;;;;;;7.55;4.25;;;;;;;22.72;52.92;95442.91;5085927;28;20036;-78
2021/06/17 08:03:37;;;;;;;8.10;4.70;;;;;;;22.82;50.91;95442.38;5092713;28;20051;-77
2021/06/17 08:06:03;;;;;;;9.93;4.72;;;;;;;22.97;51.23;95443.44;5088635;28;20044;-80
2021/06/17 08:08:30;;;;;;;5.70;4.60;;;;;;;22.77;53.27;95437.28;5092158;28;20043;-77
2021/06/17 08:10:56;;;;;;;7.72;4.55;;;;;;;22.70;52.79;95439.78;5091876;28;20048;-76
2021/06/17 08:13:22;;;;;;;7.40;4.60;;;;;;;22.75;51.54;95439.53;5090720;28;20040;-75
2021/06/17 08:15:49;;;;;;;7.75;4.57;;;;;;;22.74;52.15;95446.03;5097184;28;20032;-74
2021/06/17 08:18:15;;;;;;;8.65;4.72;;;;;;;23.06;50.96;95430.63;5085844;28;20074;-74
2021/06/17 08:20:42;;;;;;;7.78;4.70;;;;;;;23.01;51.21;95439.75;5088765;28;20040;-74
2021/06/17 08:23:08;;;;;;;7.20;4.82;;;;;;;23.08;51.75;95438.31;5083907;28;20054;-74
2021/06/17 08:25:34;;;;;;;10.25;4.70;;;;;;;23.15;51.24;95443.88;5077228;28;20050;-74
2021/06/17 08:28:04;;;;;;;10.43;5.10;;;;;;;23.39;49.16;95436.66;5089582;28;20048;-74
2021/06/17 08:30:34;;;;;;;7.97;4.57;;;;;;;23.60;49.48;95431.69;5089868;28;20115;-73
2021/06/17 08:33:00;;;;;;;7.45;4.63;;;;;;;23.86;46.98;95438.31;5083062;28;20421;-73
2021/06/17 08:35:25;;;;;;;8.65;4.72;;;;;;;24.03;46.43;95437.88;5070029;28;20040;-75
2021/06/17 08:37:51;;;;;;;6.25;4.40;;;;;;;24.19;46.70;95439.66;5091564;28;20150;-75
2021/06/17 08:40:17;;;;;;;10.43;4.72;;;;;;;24.57;45.83;95443.34;5097127;28;20039;-74
2021/06/17 08:42:44;;;;;;;7.07;4.70;;;;;;;24.54;46.87;95433.31;5099641;28;20052;-76
2021/06/17 08:45:10;;;;;;;8.68;5.25;;;;;;;24.74;44.65;95447.47;5095531;28;20028;-78
2021/06/17 08:47:39;;;;;;;7.28;5.03;;;;;;;24.83;44.59;95449.91;5086116;28;20544;-77
2021/06/17 08:50:08;;;;;;;11.07;5.15;;;;;;;24.76;45.33;95439.03;5078616;28;20181;-73
2021/06/17 08:52:36;;;;;;;7.88;4.82;;;;;;;24.87;44.13;95434.59;5096570;28;20408;-72
2021/06/17 08:55:21;;;;;;;9.77;5.25;;;;;;;24.67;45.98;95436.59;5092896;28;20066;-73
2021/06/17 08:57:50;;;;;;;9.82;5.47;;;;;;;24.52;47.48;95430.19;5086870;28;20048;-73
2021/06/17 09:00:16;;;;;;;7.53;4.70;;;;;;;24.53;46.54;95437.91;5107106;28;20482;-72
2021/06/17 09:02:52;;;;;;;8.02;4.82;;;;;;;24.54;46.95;95433.31;5115504;28;20039;-73
2021/06/17 09:05:18;;;;;;;9.65;4.78;;;;;;;24.53;43.68;95431.75;5094358;28;20048;-76
2021/06/17 09:07:44;;;;;;;6.22;4.32;;;;;;;24.72;43.57;95429.00;5092945;28;20065;-72
2021/06/17 09:10:10;;;;;;;7.60;4.85;;;;;;;24.72;44.59;95429.00;5094077;28;20450;-78
2021/06/17 09:12:48;;;;;;;18.27;5.30;;;;;;;25.04;42.35;95417.88;5103268;28;20090;-73
2021/06/17 09:15:14;;;;;;;8.15;5.10;;;;;;;25.16;42.06;95413.41;5091922;28;20036;-73
2021/06/17 09:17:40;;;;;;;8.18;4.72;;;;;;;25.23;42.81;95429.66;5088773;28;20079;-73
2021/06/17 09:20:08;;;;;;;8.10;4.68;;;;;;;25.20;43.14;95427.69;5094302;28;20071;-74
2021/06/17 09:22:35;;;;;;;7.75;4.90;;;;;;;25.25;40.76;95430.06;5093413;28;20426;-73
2021/06/17 09:25:02;;;;;;;9.10;4.82;;;;;;;25.28;43.44;95432.00;5089233;28;20040;-71
2021/06/17 09:27:38;;;;;;;11.52;4.65;;;;;;;25.55;41.63;95434.66;5078080;28;20113;-72
2021/06/17 09:30:10;;;;;;;9.02;4.82;;;;;;;25.60;42.81;95431.63;5096496;28;20040;-75
2021/06/17 09:32:38;;;;;;;6.60;4.57;;;;;;;25.41;40.74;95425.28;5100148;28;20063;-73
2021/06/17 09:35:26;;;;;;;10.93;4.90;;;;;;;25.63;40.85;95430.91;5102183;28;20037;-72
2021/06/17 09:38:01;;;;;;;9.57;4.85;;;;;;;25.74;40.34;95431.78;5091611;28;20046;-73
2021/06/17 09:40:38;;;;;;;14.68;4.93;;;;;;;25.75;41.36;95436.03;5095976;28;20040;-73
2021/06/17 09:43:15;;;;;;;10.15;5.35;;;;;;;25.83;41.62;95438.78;5093963;28;20048;-72
2021/06/17 09:45:51;;;;;;;15.18;5.00;;;;;;;25.85;41.24;95431.91;5093129;28;20520;-73
2021/06/17 09:48:42;;;;;;;11.63;5.18;;;;;;;26.02;40.53;95435.16;5093794;28;20032;-73
2021/06/17 09:51:44;;;;;;;8.73;4.45;;;;;;;26.13;39.54;95443.34;5112092;28;20050;-73
2021/06/17 09:54:16;;;;;;;8.02;4.45;;;;;;;26.19;39.12;95439.16;5113330;28;20043;-72
2021/06/17 09:56:46;;;;;;;9.57;4.68;;;;;;;26.26;39.02;95444.59;5084899;28;20097;-72
2021/06/17 09:59:12;;;;;;;8.45;4.63;;;;;;;26.41;40.46;95438.19;5097965;28;20039;-73
2021/06/17 10:01:43;;;;;;;7.13;4.90;;;;;;;26.60;37.70;95442.56;5097380;28;20104;-73
2021/06/17 10:04:14;;;;;;;11.15;4.85;;;;;;;26.82;37.98;95441.97;5107411;28;20121;-72
2021/06/17 10:06:41;;;;;;;9.48;4.40;;;;;;;27.20;35.65;95437.16;5075180;28;20040;-72
2021/06/17 10:09:12;;;;;;;9.60;4.85;;;;;;;27.32;36.14;95436.81;5087579;28;20047;-72
2021/06/17 10:11:39;;;;;;;9.65;4.60;;;;;;;27.34;36.21;95445.34;5092488;28;20489;-72
2021/06/17 10:14:07;;;;;;;7.63;4.20;;;;;;;27.49;34.90;95438.84;5092605;28;20087;-72
2021/06/17 10:16:33;;;;;;;9.25;4.50;;;;;;;27.82;34.96;95442.41;5091627;28;20052;-72
2021/06/17 10:18:59;;;;;;;6.50;4.47;;;;;;;27.92;34.44;95450.94;5092100;28;20055;-72
2021/06/17 10:21:25;;;;;;;11.70;4.30;;;;;;;28.16;32.68;95439.41;5093113;28;20037;-72
2021/06/17 10:23:51;;;;;;;8.68;4.07;;;;;;;28.37;33.05;95437.84;5110427;28;20047;-73
2021/06/17 10:26:21;;;;;;;7.68;4.38;;;;;;;28.58;33.00;95431.66;5084986;28;20041;-72
2021/06/17 10:28:52;;;;;;;6.80;4.00;;;;;;;28.88;33.46;95432.41;5090005;28;20036;-73
2021/06/17 10:31:35;;;;;;;6.97;4.40;;;;;;;28.83;31.64;95437.06;5089536;28;20107;-73
2021/06/17 10:34:23;;;;;;;6.28;4.13;;;;;;;29.25;31.12;95440.09;5091355;28;20032;-73
2021/06/17 10:37:07;;;;;;;7.28;4.35;;;;;;;29.49;30.34;95427.56;5096038;28;20068;-73
2021/06/17 10:39:37;;;;;;;;;;;;;;;29.59;30.61;95431.41;5091682;28;20032;-73
2021/06/17 10:42:03;;;;;;;7.88;4.00;;;;;;;29.95;29.57;95430.47;5105363;28;20001;-73
2021/06/17 10:45:07;;;;;;;6.45;3.58;;;;;;;30.10;27.19;95440.06;5092532;28;20125;-73
2021/06/17 10:47:45;;;;;;;4.53;3.17;;;;;;;30.36;26.47;95432.50;5091609;28;20044;-73
2021/06/17 10:50:24;;;;;;;7.22;3.58;;;;;;;30.96;25.41;95435.06;5093969;28;20114;-72
2021/06/17 10:53:12;;;;;;;5.13;3.38;;;;;;;31.32;23.81;95423.81;5090210;28;20044;-73
2021/06/17 10:56:01;;;;;;;7.35;3.53;;;;;;;31.72;24.54;95426.81;5105421;28;20036;-73
2021/06/17 10:58:45;;;;;;;6.88;3.40;;;;;;;32.03;23.05;95421.34;5080147;28;20040;-71
2021/06/17 11:01:19;;;;;;;;;;;;;;;31.93;23.20;95423.78;5091548;28;20331;-71
2021/06/17 11:03:45;;;;;;;6.20;3.25;;;;;;;32.78;21.96;95413.94;5096177;28;20297;-71
2021/06/17 11:06:10;;;;;;;11.18;3.53;;;;;;;32.63;23.44;95419.59;5107016;28;20047;-75
2021/06/17 11:08:36;;;;;;;8.18;3.88;;;;;;;33.25;22.76;95408.38;5074811;28;20421;-72
2021/06/17 11:11:05;;;;;;;7.93;3.88;;;;;;;33.06;21.60;95412.63;5092116;28;20055;-71
2021/06/17 11:13:51;;;;;;;6.20;3.30;;;;;;;33.47;20.46;95402.47;5092817;28;20432;-71
2021/06/17 11:16:16;;;;;;;5.35;3.13;;;;;;;34.27;21.17;95407.75;5097725;28;20043;-71
2021/06/17 11:21:22;;;;;;;4.13;3.05;;;;;;;34.30;17.61;95395.97;5091924;28;20032;-72
2021/06/17 11:23:49;;;;;;;3.88;3.05;;;;;;;33.55;17.64;95382.06;5087374;28;20071;-71
2021/06/17 11:26:37;;;;;;;7.05;3.40;;;;;;;33.60;17.85;95383.50;5074107;28;20033;-72
2021/06/17 11:29:08;;;;;;;4.72;2.85;;;;;;;33.88;18.05;95386.81;5081685;28;20032;-71
2021/06/17 11:31:53;;;;;;;7.07;3.30;;;;;;;34.87;18.58;95382.06;5091749;28;20044;-71
2021/06/17 11:34:38;;;;;;;6.20;3.80;;;;;;;34.69;21.07;95383.25;5088116;28;20039;-71
2021/06/17 11:37:13;;;;;;;6.53;4.00;;;;;;;34.72;20.79;95380.88;5091701;28;20044;-75
2021/06/17 11:39:39;;;;;;;8.07;4.25;;;;;;;35.32;21.87;95375.75;5097594;28;20512;-75
2021/06/17 11:42:06;;;;;;;5.63;4.13;;;;;;;35.35;20.49;95385.81;5093562;28;20036;-72
2021/06/17 11:44:33;;;;;;;6.07;4.43;;;;;;;34.84;22.45;95386.44;5105083;28;20067;-74
2021/06/17 11:47:07;;;;;;;9.80;4.68;;;;;;;34.36;24.43;95383.31;5092732;28;20043;-75